• Join FlightAware (Why Join?)
  • Login
  • US Flag 
05:49PM EDT


 

Airport Tracker/Info


-or-


 

Live Flight TrackerFlight Track Log ✈ AWE9325 ✈ 18-Apr-2013 ✈ KLAX - KPHX

Flight Track Log - Related Links

Times and Time Zones

All times are in EDT time to prevent confusion due to time zone crossing. See the AWE9325 flight status page for this flight to view local times or setup timezone preferences in your user account.

Time Position Orientation Groundspeed Altitude Reporting Facility
EDT Latitude Longitude Course Direction KTS MPH feet Rate Location/Type
08:01PM 33.9229 -118.0507 94° East  Level Estimated
08:02PM 33.9162 -117.9316 94° East  Level Estimated
08:03PM 33.9093 -117.8125 94° East  Level Estimated
08:04PM 33.9024 -117.6934 94° East  Level Estimated
08:05PM 33.8953 -117.5744 94° East  Level Estimated
08:06PM 33.8881 -117.4554 94° East  Level Estimated
08:07PM 33.8807 -117.3364 94° East  Level Estimated
08:08PM 33.8733 -117.2174 94° East  Level Estimated
08:09PM 33.8657 -117.0984 94° East  Level Estimated
08:10PM 33.8581 -116.9795 94° East  Level Estimated
08:11PM 33.8503 -116.8606 94° East  Level Estimated
08:12PM 33.8424 -116.7417 95° East  Level Estimated
08:13PM 33.8344 -116.6228 95° East  Level Estimated
08:14PM 33.8263 -116.5039 95° East  Level Estimated
08:15PM 33.8181 -116.3851 95° East  Level Estimated
08:16PM 33.8097 -116.2663 95° East  Level Estimated
08:17PM 33.8012 -116.1475 95° East  Level Estimated
08:18PM 33.7927 -116.0288 95° East  Level Estimated
08:19PM 33.7840 -115.9100 95° East  Level Estimated
08:20PM 33.7752 -115.7913 95° East  Level Estimated
08:21PM 33.7663 -115.6726 95° East  Level Estimated
08:22PM 33.7572 -115.5540 95° East  Level Estimated
08:23PM 33.7481 -115.4353 95° East  Level Estimated
08:24PM 33.7388 -115.3167 95° East  Level Estimated
08:25PM 33.7295 -115.1981 95° East  Level Estimated
08:26PM 33.7200 -115.0796 95° East  Level Estimated
08:27PM 33.7104 -114.9611 96° East  Level Estimated
08:28PM 33.7006 -114.8425 96° East  Level Estimated
08:29PM 33.6908 -114.7241 96° East  Level Estimated
08:30PM 33.6809 -114.6056 96° East  Level Estimated
08:31PM 33.6708 -114.4872 96° East  Level Estimated
08:32PM 33.6607 -114.3688 96° East  Level Estimated
08:33PM 33.6504 -114.2504 96° East  Level Estimated
08:34PM 33.6400 -114.1321 96° East  Level Estimated
08:35PM 33.6295 -114.0138 96° East  Level Estimated
08:36PM 33.6189 -113.8955 96° East  Level Estimated
08:37PM 33.6082 -113.7772 96° East  Level Estimated
08:38PM 33.5973 -113.6590 96° East  Level Estimated
08:39PM 33.5864 -113.5408 96° East  Level Estimated
08:40PM 33.5753 -113.4227 96° East  Level Estimated
08:41PM 33.5641 -113.3045 96° East  Level Estimated
08:42PM 33.5528 -113.1864 97° East  Level Estimated
08:43PM 33.5415 -113.0684 97° East  Level Estimated
08:44PM 33.5299 -112.9503 97° East  Level Estimated
08:45PM 33.5183 -112.8323 97° East  Level Estimated
08:46PM 33.5066 -112.7143 97° East  Level Estimated
08:47PM 33.4947 -112.5964 97° East  Level Estimated
08:48PM 33.4828 -112.4785 97° East  Level Estimated
08:49PM 33.4707 -112.3606 97° East  Level Estimated
08:50PM 33.4585 -112.2428 97° East  Level Estimated
08:51PM 33.4462 -112.1249 97° East  Level Estimated
08:52PM 33.4343 -112.0116 97° East  Level Estimated
08:53PM 33.4343 -112.0116 231° Southwest  Level Estimated
08:54PM 33.4343 -112.0116 231° Southwest  Level Estimated
08:55PM 33.4343 -112.0116 231° Southwest  Level Estimated
08:56PM 33.4343 -112.0116 231° Southwest  Level Estimated
08:57PM 33.4343 -112.0116 231° Southwest  Level Estimated
08:58PM 33.4343 -112.0116 231° Southwest  Level Estimated
08:59PM 33.4343 -112.0116 231° Southwest  Level Estimated